sensor_id;sensor_type;location;lat;lon;timestamp;P1;durP1;ratioP1;P2;durP2;ratioP2
71838;SDS011;59687;37.520;15.068;2022-07-25T00:02:07;9.60;;;6.97;;
71838;SDS011;59687;37.520;15.068;2022-07-25T00:04:34;11.88;;;8.15;;
71838;SDS011;59687;37.520;15.068;2022-07-25T00:07:01;10.15;;;7.90;;
71838;SDS011;59687;37.520;15.068;2022-07-25T00:09:29;11.30;;;7.20;;
71838;SDS011;59687;37.520;15.068;2022-07-25T00:11:56;11.10;;;7.00;;
71838;SDS011;59687;37.520;15.068;2022-07-25T00:14:23;9.68;;;7.25;;
71838;SDS011;59687;37.520;15.068;2022-07-25T00:16:50;9.57;;;7.07;;
71838;SDS011;59687;37.520;15.068;2022-07-25T00:19:17;12.55;;;7.35;;
71838;SDS011;59687;37.520;15.068;2022-07-25T00:21:45;10.95;;;7.13;;
71838;SDS011;59687;37.520;15.068;2022-07-25T00:24:13;9.50;;;6.87;;
71838;SDS011;59687;37.520;15.068;2022-07-25T00:26:40;8.93;;;7.32;;
71838;SDS011;59687;37.520;15.068;2022-07-25T00:29:08;11.25;;;7.32;;
71838;SDS011;59687;37.520;15.068;2022-07-25T00:31:36;10.95;;;7.15;;
71838;SDS011;59687;37.520;15.068;2022-07-25T00:34:03;12.13;;;8.00;;
71838;SDS011;59687;37.520;15.068;2022-07-25T00:36:32;9.87;;;7.47;;
71838;SDS011;59687;37.520;15.068;2022-07-25T00:38:59;9.63;;;7.88;;
71838;SDS011;59687;37.520;15.068;2022-07-25T00:41:26;10.60;;;7.97;;
71838;SDS011;59687;37.520;15.068;2022-07-25T00:43:56;11.43;;;7.47;;
71838;SDS011;59687;37.520;15.068;2022-07-25T00:46:23;11.05;;;8.20;;
71838;SDS011;59687;37.520;15.068;2022-07-25T00:48:51;10.63;;;8.33;;
71838;SDS011;59687;37.520;15.068;2022-07-25T00:51:29;12.20;;;8.38;;
71838;SDS011;59687;37.520;15.068;2022-07-25T00:53:56;11.48;;;8.05;;
71838;SDS011;59687;37.520;15.068;2022-07-25T00:56:23;11.55;;;7.75;;
71838;SDS011;59687;37.520;15.068;2022-07-25T00:58:50;11.07;;;8.05;;
71838;SDS011;59687;37.520;15.068;2022-07-25T01:01:17;12.47;;;8.00;;
71838;SDS011;59687;37.520;15.068;2022-07-25T01:03:44;10.30;;;8.00;;
71838;SDS011;59687;37.520;15.068;2022-07-25T01:06:11;12.32;;;8.27;;
71838;SDS011;59687;37.520;15.068;2022-07-25T01:08:38;10.95;;;8.18;;
71838;SDS011;59687;37.520;15.068;2022-07-25T01:11:06;12.05;;;7.97;;
71838;SDS011;59687;37.520;15.068;2022-07-25T01:13:33;9.93;;;7.27;;
71838;SDS011;59687;37.520;15.068;2022-07-25T01:16:07;11.05;;;7.97;;
71838;SDS011;59687;37.520;15.068;2022-07-25T01:18:34;10.13;;;7.50;;
71838;SDS011;59687;37.520;15.068;2022-07-25T01:21:02;11.00;;;8.02;;
71838;SDS011;59687;37.520;15.068;2022-07-25T01:23:31;10.57;;;7.82;;
71838;SDS011;59687;37.520;15.068;2022-07-25T01:26:00;9.30;;;7.53;;
71838;SDS011;59687;37.520;15.068;2022-07-25T01:28:27;11.43;;;7.70;;
71838;SDS011;59687;37.520;15.068;2022-07-25T01:30:56;11.30;;;8.00;;
71838;SDS011;59687;37.520;15.068;2022-07-25T01:33:23;9.18;;;7.50;;
71838;SDS011;59687;37.520;15.068;2022-07-25T01:35:51;10.80;;;7.57;;
71838;SDS011;59687;37.520;15.068;2022-07-25T01:38:20;10.60;;;7.27;;
71838;SDS011;59687;37.520;15.068;2022-07-25T01:40:47;9.95;;;7.28;;
71838;SDS011;59687;37.520;15.068;2022-07-25T01:43:14;9.52;;;7.97;;
71838;SDS011;59687;37.520;15.068;2022-07-25T01:45:48;9.40;;;7.53;;
71838;SDS011;59687;37.520;15.068;2022-07-25T01:48:24;10.88;;;7.50;;
71838;SDS011;59687;37.520;15.068;2022-07-25T01:50:51;9.97;;;7.73;;
71838;SDS011;59687;37.520;15.068;2022-07-25T01:53:20;11.57;;;7.70;;
71838;SDS011;59687;37.520;15.068;2022-07-25T01:55:48;10.25;;;7.50;;
71838;SDS011;59687;37.520;15.068;2022-07-25T01:58:17;10.95;;;7.57;;
71838;SDS011;59687;37.520;15.068;2022-07-25T02:00:45;10.32;;;7.57;;
71838;SDS011;59687;37.520;15.068;2022-07-25T02:03:12;10.67;;;8.00;;
71838;SDS011;59687;37.520;15.068;2022-07-25T02:05:58;9.65;;;7.63;;
71838;SDS011;59687;37.520;15.068;2022-07-25T02:08:32;9.48;;;6.93;;
71838;SDS011;59687;37.520;15.068;2022-07-25T02:11:00;11.75;;;7.93;;
71838;SDS011;59687;37.520;15.068;2022-07-25T02:13:29;9.88;;;7.45;;
71838;SDS011;59687;37.520;15.068;2022-07-25T02:15:56;9.93;;;6.60;;
71838;SDS011;59687;37.520;15.068;2022-07-25T02:18:25;11.23;;;6.93;;
71838;SDS011;59687;37.520;15.068;2022-07-25T02:20:52;10.88;;;7.75;;
71838;SDS011;59687;37.520;15.068;2022-07-25T02:23:19;9.45;;;7.15;;
71838;SDS011;59687;37.520;15.068;2022-07-25T02:25:47;9.88;;;7.30;;
71838;SDS011;59687;37.520;15.068;2022-07-25T02:28:14;9.90;;;7.40;;
71838;SDS011;59687;37.520;15.068;2022-07-25T02:30:44;9.35;;;7.30;;
71838;SDS011;59687;37.520;15.068;2022-07-25T02:33:12;9.68;;;7.20;;
71838;SDS011;59687;37.520;15.068;2022-07-25T02:35:39;9.20;;;7.65;;
71838;SDS011;59687;37.520;15.068;2022-07-25T02:38:07;10.85;;;7.80;;
71838;SDS011;59687;37.520;15.068;2022-07-25T02:40:36;11.57;;;8.37;;
71838;SDS011;59687;37.520;15.068;2022-07-25T02:43:04;8.90;;;6.75;;
71838;SDS011;59687;37.520;15.068;2022-07-25T02:45:32;8.55;;;6.97;;
71838;SDS011;59687;37.520;15.068;2022-07-25T02:48:00;10.65;;;7.38;;
71838;SDS011;59687;37.520;15.068;2022-07-25T02:50:27;10.82;;;7.50;;
71838;SDS011;59687;37.520;15.068;2022-07-25T02:52:54;8.63;;;6.80;;
71838;SDS011;59687;37.520;15.068;2022-07-25T02:55:22;11.88;;;7.20;;
71838;SDS011;59687;37.520;15.068;2022-07-25T02:57:49;10.18;;;7.68;;
71838;SDS011;59687;37.520;15.068;2022-07-25T03:00:16;10.85;;;7.00;;
71838;SDS011;59687;37.520;15.068;2022-07-25T03:02:44;8.80;;;6.82;;
71838;SDS011;59687;37.520;15.068;2022-07-25T03:05:11;8.80;;;6.60;;
71838;SDS011;59687;37.520;15.068;2022-07-25T03:07:40;11.13;;;7.50;;
71838;SDS011;59687;37.520;15.068;2022-07-25T03:10:09;12.85;;;7.38;;
71838;SDS011;59687;37.520;15.068;2022-07-25T03:12:39;9.18;;;7.00;;
71838;SDS011;59687;37.520;15.068;2022-07-25T03:15:06;8.15;;;6.95;;
71838;SDS011;59687;37.520;15.068;2022-07-25T03:17:34;9.60;;;6.77;;
71838;SDS011;59687;37.520;15.068;2022-07-25T03:20:01;10.40;;;6.82;;
71838;SDS011;59687;37.520;15.068;2022-07-25T03:22:29;10.50;;;7.30;;
71838;SDS011;59687;37.520;15.068;2022-07-25T03:24:57;11.35;;;7.20;;
71838;SDS011;59687;37.520;15.068;2022-07-25T03:27:25;9.85;;;6.80;;
71838;SDS011;59687;37.520;15.068;2022-07-25T03:29:52;10.27;;;6.53;;
71838;SDS011;59687;37.520;15.068;2022-07-25T03:32:19;9.38;;;6.75;;
71838;SDS011;59687;37.520;15.068;2022-07-25T03:34:50;10.23;;;7.15;;
71838;SDS011;59687;37.520;15.068;2022-07-25T03:37:18;8.40;;;6.57;;
71838;SDS011;59687;37.520;15.068;2022-07-25T03:39:45;9.32;;;7.00;;
71838;SDS011;59687;37.520;15.068;2022-07-25T03:42:12;10.50;;;6.60;;
71838;SDS011;59687;37.520;15.068;2022-07-25T03:44:40;10.05;;;6.80;;
71838;SDS011;59687;37.520;15.068;2022-07-25T03:47:06;9.38;;;6.47;;
71838;SDS011;59687;37.520;15.068;2022-07-25T03:49:33;9.90;;;6.72;;
71838;SDS011;59687;37.520;15.068;2022-07-25T03:52:01;8.93;;;6.13;;
71838;SDS011;59687;37.520;15.068;2022-07-25T03:54:28;9.97;;;7.50;;
71838;SDS011;59687;37.520;15.068;2022-07-25T03:56:55;9.80;;;7.18;;
71838;SDS011;59687;37.520;15.068;2022-07-25T03:59:22;9.68;;;6.55;;
71838;SDS011;59687;37.520;15.068;2022-07-25T04:01:49;10.38;;;6.90;;
71838;SDS011;59687;37.520;15.068;2022-07-25T04:04:16;10.93;;;6.82;;
71838;SDS011;59687;37.520;15.068;2022-07-25T04:06:45;8.13;;;6.57;;
71838;SDS011;59687;37.520;15.068;2022-07-25T04:09:12;9.77;;;6.88;;
71838;SDS011;59687;37.520;15.068;2022-07-25T04:11:41;9.60;;;6.72;;
71838;SDS011;59687;37.520;15.068;2022-07-25T04:14:08;9.68;;;6.80;;
71838;SDS011;59687;37.520;15.068;2022-07-25T04:16:35;11.80;;;6.70;;
71838;SDS011;59687;37.520;15.068;2022-07-25T04:19:02;9.13;;;6.40;;
71838;SDS011;59687;37.520;15.068;2022-07-25T04:21:30;9.32;;;6.25;;
71838;SDS011;59687;37.520;15.068;2022-07-25T04:24:00;8.90;;;6.65;;
71838;SDS011;59687;37.520;15.068;2022-07-25T04:26:27;9.18;;;6.70;;
71838;SDS011;59687;37.520;15.068;2022-07-25T04:28:54;9.07;;;6.90;;
71838;SDS011;59687;37.520;15.068;2022-07-25T04:31:23;9.00;;;6.20;;
71838;SDS011;59687;37.520;15.068;2022-07-25T04:33:51;9.30;;;6.57;;
71838;SDS011;59687;37.520;15.068;2022-07-25T04:36:18;9.57;;;6.53;;
71838;SDS011;59687;37.520;15.068;2022-07-25T04:38:45;9.52;;;6.40;;
71838;SDS011;59687;37.520;15.068;2022-07-25T04:41:12;9.95;;;6.75;;
71838;SDS011;59687;37.520;15.068;2022-07-25T04:43:39;10.13;;;6.67;;
71838;SDS011;59687;37.520;15.068;2022-07-25T04:46:09;13.32;;;6.97;;
71838;SDS011;59687;37.520;15.068;2022-07-25T04:48:36;10.77;;;7.05;;
71838;SDS011;59687;37.520;15.068;2022-07-25T04:51:03;10.32;;;7.45;;
71838;SDS011;59687;37.520;15.068;2022-07-25T04:53:30;11.38;;;8.00;;
71838;SDS011;59687;37.520;15.068;2022-07-25T04:55:59;11.87;;;8.17;;
71838;SDS011;59687;37.520;15.068;2022-07-25T04:58:25;9.77;;;7.07;;
71838;SDS011;59687;37.520;15.068;2022-07-25T05:00:52;9.90;;;7.35;;
71838;SDS011;59687;37.520;15.068;2022-07-25T05:03:19;11.73;;;8.00;;
71838;SDS011;59687;37.520;15.068;2022-07-25T05:05:46;9.40;;;7.70;;
71838;SDS011;59687;37.520;15.068;2022-07-25T05:08:13;10.27;;;7.20;;
71838;SDS011;59687;37.520;15.068;2022-07-25T05:10:40;10.02;;;7.10;;
71838;SDS011;59687;37.520;15.068;2022-07-25T05:13:08;11.55;;;7.60;;
71838;SDS011;59687;37.520;15.068;2022-07-25T05:15:35;10.90;;;7.35;;
71838;SDS011;59687;37.520;15.068;2022-07-25T05:18:02;9.35;;;7.70;;
71838;SDS011;59687;37.520;15.068;2022-07-25T05:20:30;9.77;;;7.30;;
71838;SDS011;59687;37.520;15.068;2022-07-25T05:22:57;11.35;;;8.10;;
71838;SDS011;59687;37.520;15.068;2022-07-25T05:25:24;10.27;;;7.90;;
71838;SDS011;59687;37.520;15.068;2022-07-25T05:27:51;12.35;;;7.78;;
71838;SDS011;59687;37.520;15.068;2022-07-25T05:30:20;10.52;;;7.30;;
71838;SDS011;59687;37.520;15.068;2022-07-25T05:32:49;12.03;;;9.13;;
71838;SDS011;59687;37.520;15.068;2022-07-25T05:35:16;12.25;;;7.93;;
71838;SDS011;59687;37.520;15.068;2022-07-25T05:37:43;8.90;;;6.97;;
71838;SDS011;59687;37.520;15.068;2022-07-25T05:40:13;13.13;;;8.38;;
71838;SDS011;59687;37.520;15.068;2022-07-25T05:42:40;9.27;;;7.43;;
71838;SDS011;59687;37.520;15.068;2022-07-25T05:45:08;9.83;;;7.53;;
71838;SDS011;59687;37.520;15.068;2022-07-25T05:47:35;8.55;;;6.82;;
71838;SDS011;59687;37.520;15.068;2022-07-25T05:50:03;10.65;;;7.78;;
71838;SDS011;59687;37.520;15.068;2022-07-25T05:52:30;12.27;;;8.02;;
71838;SDS011;59687;37.520;15.068;2022-07-25T05:54:57;10.68;;;7.32;;
71838;SDS011;59687;37.520;15.068;2022-07-25T05:57:24;10.80;;;7.57;;
71838;SDS011;59687;37.520;15.068;2022-07-25T05:59:51;13.02;;;7.57;;
71838;SDS011;59687;37.520;15.068;2022-07-25T06:02:18;11.45;;;7.38;;
71838;SDS011;59687;37.520;15.068;2022-07-25T06:04:45;12.77;;;7.78;;
71838;SDS011;59687;37.520;15.068;2022-07-25T06:07:12;11.55;;;7.28;;
71838;SDS011;59687;37.520;15.068;2022-07-25T06:09:41;12.53;;;7.40;;
71838;SDS011;59687;37.520;15.068;2022-07-25T06:12:07;12.43;;;8.27;;
71838;SDS011;59687;37.520;15.068;2022-07-25T06:14:35;11.25;;;8.02;;
71838;SDS011;59687;37.520;15.068;2022-07-25T06:17:02;11.73;;;8.13;;
71838;SDS011;59687;37.520;15.068;2022-07-25T06:19:29;10.70;;;8.57;;
71838;SDS011;59687;37.520;15.068;2022-07-25T06:21:56;11.40;;;8.17;;
71838;SDS011;59687;37.520;15.068;2022-07-25T06:24:23;10.88;;;7.18;;
71838;SDS011;59687;37.520;15.068;2022-07-25T06:26:50;10.32;;;7.38;;
71838;SDS011;59687;37.520;15.068;2022-07-25T06:29:17;10.93;;;7.85;;
71838;SDS011;59687;37.520;15.068;2022-07-25T06:31:45;10.30;;;7.88;;
71838;SDS011;59687;37.520;15.068;2022-07-25T06:34:12;10.93;;;8.33;;
71838;SDS011;59687;37.520;15.068;2022-07-25T06:36:39;10.27;;;7.63;;
71838;SDS011;59687;37.520;15.068;2022-07-25T06:39:06;9.93;;;7.40;;
71838;SDS011;59687;37.520;15.068;2022-07-25T06:41:33;11.07;;;7.55;;
71838;SDS011;59687;37.520;15.068;2022-07-25T06:44:00;11.10;;;7.60;;
71838;SDS011;59687;37.520;15.068;2022-07-25T06:46:27;10.63;;;7.23;;
71838;SDS011;59687;37.520;15.068;2022-07-25T06:48:59;10.95;;;7.55;;
71838;SDS011;59687;37.520;15.068;2022-07-25T06:51:26;12.48;;;7.47;;
71838;SDS011;59687;37.520;15.068;2022-07-25T06:53:53;9.57;;;7.07;;
71838;SDS011;59687;37.520;15.068;2022-07-25T06:56:20;9.55;;;6.95;;
71838;SDS011;59687;37.520;15.068;2022-07-25T06:58:47;11.90;;;7.77;;
71838;SDS011;59687;37.520;15.068;2022-07-25T07:01:15;11.02;;;7.32;;
71838;SDS011;59687;37.520;15.068;2022-07-25T07:03:42;11.40;;;7.53;;
71838;SDS011;59687;37.520;15.068;2022-07-25T07:06:09;11.82;;;7.70;;
71838;SDS011;59687;37.520;15.068;2022-07-25T07:08:36;11.60;;;7.05;;
71838;SDS011;59687;37.520;15.068;2022-07-25T07:11:03;9.90;;;7.27;;
71838;SDS011;59687;37.520;15.068;2022-07-25T07:13:32;11.00;;;7.78;;
71838;SDS011;59687;37.520;15.068;2022-07-25T07:15:59;11.10;;;7.22;;
71838;SDS011;59687;37.520;15.068;2022-07-25T07:18:26;11.07;;;7.35;;
71838;SDS011;59687;37.520;15.068;2022-07-25T07:20:54;10.15;;;7.15;;
71838;SDS011;59687;37.520;15.068;2022-07-25T07:23:21;11.67;;;6.87;;
71838;SDS011;59687;37.520;15.068;2022-07-25T07:25:47;12.93;;;6.85;;
71838;SDS011;59687;37.520;15.068;2022-07-25T07:28:15;10.82;;;7.20;;
71838;SDS011;59687;37.520;15.068;2022-07-25T07:30:42;9.98;;;7.10;;
71838;SDS011;59687;37.520;15.068;2022-07-25T07:33:31;12.77;;;7.05;;
71838;SDS011;59687;37.520;15.068;2022-07-25T07:36:00;12.10;;;7.63;;
71838;SDS011;59687;37.520;15.068;2022-07-25T07:38:27;12.35;;;7.78;;
71838;SDS011;59687;37.520;15.068;2022-07-25T07:40:55;12.32;;;7.40;;
71838;SDS011;59687;37.520;15.068;2022-07-25T07:43:22;9.73;;;6.85;;
71838;SDS011;59687;37.520;15.068;2022-07-25T07:45:52;10.95;;;6.97;;
71838;SDS011;59687;37.520;15.068;2022-07-25T07:48:22;11.63;;;6.93;;
71838;SDS011;59687;37.520;15.068;2022-07-25T07:50:49;10.10;;;7.65;;
71838;SDS011;59687;37.520;15.068;2022-07-25T07:53:17;8.45;;;6.90;;
71838;SDS011;59687;37.520;15.068;2022-07-25T07:55:45;9.50;;;6.72;;
71838;SDS011;59687;37.520;15.068;2022-07-25T07:58:21;9.77;;;6.85;;
71838;SDS011;59687;37.520;15.068;2022-07-25T08:00:48;9.57;;;7.30;;
71838;SDS011;59687;37.520;15.068;2022-07-25T08:03:17;8.90;;;6.80;;
71838;SDS011;59687;37.520;15.068;2022-07-25T08:05:47;10.43;;;7.00;;
71838;SDS011;59687;37.520;15.068;2022-07-25T08:08:15;9.70;;;7.18;;
71838;SDS011;59687;37.520;15.068;2022-07-25T08:10:43;8.65;;;6.28;;
71838;SDS011;59687;37.520;15.068;2022-07-25T08:13:16;8.80;;;6.60;;
71838;SDS011;59687;37.520;15.068;2022-07-25T08:15:47;9.88;;;6.20;;
71838;SDS011;59687;37.520;15.068;2022-07-25T08:18:15;10.57;;;6.65;;
71838;SDS011;59687;37.520;15.068;2022-07-25T08:20:45;9.90;;;6.70;;
71838;SDS011;59687;37.520;15.068;2022-07-25T08:23:12;9.75;;;6.78;;
71838;SDS011;59687;37.520;15.068;2022-07-25T08:25:40;11.50;;;7.07;;
71838;SDS011;59687;37.520;15.068;2022-07-25T08:28:08;10.32;;;6.40;;
71838;SDS011;59687;37.520;15.068;2022-07-25T08:30:36;10.50;;;7.05;;
71838;SDS011;59687;37.520;15.068;2022-07-25T08:33:05;9.55;;;7.07;;
71838;SDS011;59687;37.520;15.068;2022-07-25T08:35:33;10.57;;;6.53;;
71838;SDS011;59687;37.520;15.068;2022-07-25T08:38:01;9.03;;;6.60;;
71838;SDS011;59687;37.520;15.068;2022-07-25T08:40:30;11.05;;;6.80;;
71838;SDS011;59687;37.520;15.068;2022-07-25T08:42:58;9.77;;;6.22;;
71838;SDS011;59687;37.520;15.068;2022-07-25T08:45:26;9.57;;;6.10;;
71838;SDS011;59687;37.520;15.068;2022-07-25T08:47:54;9.43;;;5.97;;
71838;SDS011;59687;37.520;15.068;2022-07-25T08:50:26;7.73;;;5.73;;
71838;SDS011;59687;37.520;15.068;2022-07-25T08:52:55;11.27;;;5.85;;
71838;SDS011;59687;37.520;15.068;2022-07-25T08:55:35;9.52;;;6.40;;
71838;SDS011;59687;37.520;15.068;2022-07-25T08:58:02;7.38;;;5.75;;
71838;SDS011;59687;37.520;15.068;2022-07-25T09:00:29;12.63;;;6.70;;
71838;SDS011;59687;37.520;15.068;2022-07-25T09:03:00;10.17;;;5.93;;
71838;SDS011;59687;37.520;15.068;2022-07-25T09:05:29;8.55;;;6.07;;
71838;SDS011;59687;37.520;15.068;2022-07-25T09:08:04;10.45;;;6.82;;
71838;SDS011;59687;37.520;15.068;2022-07-25T09:10:33;9.77;;;6.95;;
71838;SDS011;59687;37.520;15.068;2022-07-25T09:13:03;9.80;;;6.50;;
71838;SDS011;59687;37.520;15.068;2022-07-25T09:15:34;9.47;;;5.87;;
71838;SDS011;59687;37.520;15.068;2022-07-25T09:18:07;9.82;;;6.65;;
71838;SDS011;59687;37.520;15.068;2022-07-25T09:20:40;11.98;;;6.85;;
71838;SDS011;59687;37.520;15.068;2022-07-25T09:31:13;9.93;;;6.38;;
71838;SDS011;59687;37.520;15.068;2022-07-25T09:33:54;9.70;;;6.95;;
71838;SDS011;59687;37.520;15.068;2022-07-25T09:36:33;8.25;;;6.55;;
71838;SDS011;59687;37.520;15.068;2022-07-25T09:39:01;10.23;;;6.38;;
71838;SDS011;59687;37.520;15.068;2022-07-25T09:41:33;8.30;;;6.33;;
71838;SDS011;59687;37.520;15.068;2022-07-25T09:44:18;10.75;;;6.82;;
71838;SDS011;59687;37.520;15.068;2022-07-25T09:46:48;10.55;;;6.63;;
71838;SDS011;59687;37.520;15.068;2022-07-25T09:49:15;10.70;;;6.32;;
71838;SDS011;59687;37.520;15.068;2022-07-25T09:51:45;9.93;;;6.10;;
71838;SDS011;59687;37.520;15.068;2022-07-25T09:54:13;8.77;;;6.33;;
71838;SDS011;59687;37.520;15.068;2022-07-25T09:56:42;10.02;;;6.82;;
71838;SDS011;59687;37.520;15.068;2022-07-25T09:59:09;7.85;;;6.13;;
71838;SDS011;59687;37.520;15.068;2022-07-25T10:01:38;9.75;;;6.68;;
71838;SDS011;59687;37.520;15.068;2022-07-25T10:04:16;9.88;;;6.78;;
71838;SDS011;59687;37.520;15.068;2022-07-25T10:09:29;7.95;;;5.97;;
71838;SDS011;59687;37.520;15.068;2022-07-25T10:12:10;9.55;;;6.28;;
71838;SDS011;59687;37.520;15.068;2022-07-25T10:14:39;9.55;;;6.32;;
71838;SDS011;59687;37.520;15.068;2022-07-25T10:17:07;10.15;;;6.22;;
71838;SDS011;59687;37.520;15.068;2022-07-25T10:19:44;13.53;;;6.90;;
71838;SDS011;59687;37.520;15.068;2022-07-25T10:22:16;7.90;;;5.57;;
71838;SDS011;59687;37.520;15.068;2022-07-25T10:24:48;12.48;;;6.47;;
71838;SDS011;59687;37.520;15.068;2022-07-25T10:27:24;9.02;;;5.90;;
71838;SDS011;59687;37.520;15.068;2022-07-25T10:29:52;11.55;;;6.38;;
71838;SDS011;59687;37.520;15.068;2022-07-25T10:32:24;9.67;;;5.60;;
71838;SDS011;59687;37.520;15.068;2022-07-25T10:34:52;7.85;;;5.53;;
71838;SDS011;59687;37.520;15.068;2022-07-25T10:37:25;7.80;;;5.22;;
71838;SDS011;59687;37.520;15.068;2022-07-25T10:39:54;7.78;;;5.55;;
71838;SDS011;59687;37.520;15.068;2022-07-25T10:42:24;8.65;;;5.40;;
71838;SDS011;59687;37.520;15.068;2022-07-25T10:44:54;7.13;;;4.60;;
71838;SDS011;59687;37.520;15.068;2022-07-25T10:47:23;8.13;;;5.05;;
71838;SDS011;59687;37.520;15.068;2022-07-25T10:50:03;7.82;;;5.40;;
71838;SDS011;59687;37.520;15.068;2022-07-25T10:52:56;7.45;;;5.25;;
71838;SDS011;59687;37.520;15.068;2022-07-25T10:55:27;8.10;;;4.93;;
71838;SDS011;59687;37.520;15.068;2022-07-25T10:58:01;10.93;;;5.43;;
71838;SDS011;59687;37.520;15.068;2022-07-25T11:00:46;9.68;;;5.43;;
71838;SDS011;59687;37.520;15.068;2022-07-25T11:03:13;8.88;;;5.30;;
71838;SDS011;59687;37.520;15.068;2022-07-25T11:05:46;8.25;;;4.90;;
71838;SDS011;59687;37.520;15.068;2022-07-25T11:08:13;6.88;;;4.95;;
71838;SDS011;59687;37.520;15.068;2022-07-25T11:10:50;9.50;;;5.00;;
71838;SDS011;59687;37.520;15.068;2022-07-25T11:13:18;8.95;;;4.72;;
71838;SDS011;59687;37.520;15.068;2022-07-25T11:15:47;7.45;;;5.07;;
71838;SDS011;59687;37.520;15.068;2022-07-25T11:18:15;8.70;;;5.38;;
71838;SDS011;59687;37.520;15.068;2022-07-25T11:20:44;7.90;;;4.88;;
71838;SDS011;59687;37.520;15.068;2022-07-25T11:23:11;7.87;;;5.00;;
71838;SDS011;59687;37.520;15.068;2022-07-25T11:25:47;7.95;;;4.60;;
71838;SDS011;59687;37.520;15.068;2022-07-25T11:28:14;6.93;;;5.18;;
71838;SDS011;59687;37.520;15.068;2022-07-25T11:30:41;9.07;;;5.68;;
71838;SDS011;59687;37.520;15.068;2022-07-25T11:33:12;8.77;;;5.60;;
71838;SDS011;59687;37.520;15.068;2022-07-25T11:35:42;9.97;;;4.90;;
71838;SDS011;59687;37.520;15.068;2022-07-25T11:38:11;9.13;;;5.38;;
71838;SDS011;59687;37.520;15.068;2022-07-25T11:40:42;8.13;;;5.10;;
71838;SDS011;59687;37.520;15.068;2022-07-25T11:43:20;7.38;;;5.15;;
71838;SDS011;59687;37.520;15.068;2022-07-25T11:45:56;6.45;;;4.82;;
71838;SDS011;59687;37.520;15.068;2022-07-25T11:48:32;8.27;;;5.17;;
71838;SDS011;59687;37.520;15.068;2022-07-25T11:53:39;7.85;;;5.18;;
71838;SDS011;59687;37.520;15.068;2022-07-25T11:56:19;9.07;;;5.55;;
71838;SDS011;59687;37.520;15.068;2022-07-25T11:59:06;7.95;;;5.43;;
71838;SDS011;59687;37.520;15.068;2022-07-25T12:01:34;8.33;;;4.67;;
71838;SDS011;59687;37.520;15.068;2022-07-25T12:04:18;7.63;;;5.00;;
71838;SDS011;59687;37.520;15.068;2022-07-25T12:06:47;7.38;;;5.22;;
71838;SDS011;59687;37.520;15.068;2022-07-25T12:09:17;7.32;;;4.72;;
71838;SDS011;59687;37.520;15.068;2022-07-25T12:11:47;7.07;;;4.78;;
71838;SDS011;59687;37.520;15.068;2022-07-25T12:14:15;7.10;;;4.70;;
71838;SDS011;59687;37.520;15.068;2022-07-25T12:16:42;9.25;;;4.88;;
71838;SDS011;59687;37.520;15.068;2022-07-25T12:19:11;7.53;;;4.85;;
71838;SDS011;59687;37.520;15.068;2022-07-25T12:21:44;10.38;;;4.85;;
71838;SDS011;59687;37.520;15.068;2022-07-25T12:24:11;7.72;;;4.38;;
71838;SDS011;59687;37.520;15.068;2022-07-25T12:26:43;10.33;;;4.83;;
71838;SDS011;59687;37.520;15.068;2022-07-25T12:29:10;8.60;;;4.60;;
71838;SDS011;59687;37.520;15.068;2022-07-25T12:31:38;6.57;;;4.15;;
71838;SDS011;59687;37.520;15.068;2022-07-25T12:34:05;8.88;;;4.63;;
71838;SDS011;59687;37.520;15.068;2022-07-25T12:36:38;8.55;;;4.65;;
71838;SDS011;59687;37.520;15.068;2022-07-25T12:39:10;8.47;;;4.60;;
71838;SDS011;59687;37.520;15.068;2022-07-25T12:41:37;7.57;;;4.82;;
71838;SDS011;59687;37.520;15.068;2022-07-25T12:44:05;7.97;;;4.30;;
71838;SDS011;59687;37.520;15.068;2022-07-25T12:46:33;10.68;;;4.78;;
71838;SDS011;59687;37.520;15.068;2022-07-25T12:49:04;6.70;;;4.38;;
71838;SDS011;59687;37.520;15.068;2022-07-25T12:51:51;7.80;;;4.30;;
71838;SDS011;59687;37.520;15.068;2022-07-25T12:55:35;7.93;;;4.15;;
71838;SDS011;59687;37.520;15.068;2022-07-25T12:58:02;8.00;;;4.32;;
71838;SDS011;59687;37.520;15.068;2022-07-25T13:00:30;10.98;;;5.03;;
71838;SDS011;59687;37.520;15.068;2022-07-25T13:02:57;7.30;;;4.70;;
71838;SDS011;59687;37.520;15.068;2022-07-25T13:05:24;7.63;;;4.30;;
71838;SDS011;59687;37.520;15.068;2022-07-25T13:07:52;7.78;;;4.45;;
71838;SDS011;59687;37.520;15.068;2022-07-25T13:10:21;8.23;;;4.43;;
71838;SDS011;59687;37.520;15.068;2022-07-25T13:12:51;8.23;;;4.72;;
71838;SDS011;59687;37.520;15.068;2022-07-25T13:15:18;6.28;;;4.38;;
71838;SDS011;59687;37.520;15.068;2022-07-25T13:17:49;7.33;;;4.00;;
71838;SDS011;59687;37.520;15.068;2022-07-25T13:20:18;8.02;;;4.60;;
71838;SDS011;59687;37.520;15.068;2022-07-25T13:22:45;7.05;;;3.92;;
71838;SDS011;59687;37.520;15.068;2022-07-25T13:25:12;8.13;;;4.55;;
71838;SDS011;59687;37.520;15.068;2022-07-25T13:27:40;8.55;;;4.47;;
71838;SDS011;59687;37.520;15.068;2022-07-25T13:30:08;6.50;;;4.30;;
71838;SDS011;59687;37.520;15.068;2022-07-25T13:32:36;8.82;;;4.55;;
71838;SDS011;59687;37.520;15.068;2022-07-25T13:35:04;7.07;;;4.43;;
71838;SDS011;59687;37.520;15.068;2022-07-25T13:37:34;5.97;;;4.45;;
71838;SDS011;59687;37.520;15.068;2022-07-25T13:40:04;8.50;;;5.10;;
71838;SDS011;59687;37.520;15.068;2022-07-25T13:42:36;8.20;;;4.40;;
71838;SDS011;59687;37.520;15.068;2022-07-25T13:45:04;9.30;;;4.82;;
71838;SDS011;59687;37.520;15.068;2022-07-25T13:47:32;9.52;;;4.63;;
71838;SDS011;59687;37.520;15.068;2022-07-25T13:50:01;7.85;;;4.70;;
71838;SDS011;59687;37.520;15.068;2022-07-25T13:52:30;7.43;;;4.80;;
71838;SDS011;59687;37.520;15.068;2022-07-25T13:54:59;9.13;;;4.77;;
71838;SDS011;59687;37.520;15.068;2022-07-25T13:57:27;6.45;;;4.63;;
71838;SDS011;59687;37.520;15.068;2022-07-25T13:59:54;8.07;;;5.20;;
71838;SDS011;59687;37.520;15.068;2022-07-25T14:02:23;7.25;;;4.28;;
71838;SDS011;59687;37.520;15.068;2022-07-25T14:04:50;6.88;;;4.72;;
71838;SDS011;59687;37.520;15.068;2022-07-25T14:07:17;6.77;;;4.13;;
71838;SDS011;59687;37.520;15.068;2022-07-25T14:09:44;6.50;;;4.82;;
71838;SDS011;59687;37.520;15.068;2022-07-25T14:12:11;9.77;;;5.10;;
71838;SDS011;59687;37.520;15.068;2022-07-25T14:14:38;6.55;;;4.78;;
71838;SDS011;59687;37.520;15.068;2022-07-25T14:17:06;7.97;;;4.80;;
71838;SDS011;59687;37.520;15.068;2022-07-25T14:19:34;7.07;;;4.63;;
71838;SDS011;59687;37.520;15.068;2022-07-25T14:22:01;6.05;;;4.75;;
71838;SDS011;59687;37.520;15.068;2022-07-25T14:24:29;6.63;;;4.88;;
71838;SDS011;59687;37.520;15.068;2022-07-25T14:26:57;6.35;;;4.53;;
71838;SDS011;59687;37.520;15.068;2022-07-25T14:29:24;6.88;;;4.97;;
71838;SDS011;59687;37.520;15.068;2022-07-25T14:31:53;11.63;;;5.50;;
71838;SDS011;59687;37.520;15.068;2022-07-25T14:34:21;8.80;;;4.70;;
71838;SDS011;59687;37.520;15.068;2022-07-25T14:36:48;8.40;;;5.30;;
71838;SDS011;59687;37.520;15.068;2022-07-25T14:39:16;9.63;;;5.20;;
71838;SDS011;59687;37.520;15.068;2022-07-25T14:41:44;7.90;;;5.35;;
71838;SDS011;59687;37.520;15.068;2022-07-25T14:44:11;7.00;;;5.23;;
71838;SDS011;59687;37.520;15.068;2022-07-25T14:46:39;8.00;;;4.95;;
71838;SDS011;59687;37.520;15.068;2022-07-25T14:49:11;7.50;;;5.10;;
71838;SDS011;59687;37.520;15.068;2022-07-25T14:51:40;10.93;;;5.13;;
71838;SDS011;59687;37.520;15.068;2022-07-25T14:54:12;9.90;;;5.18;;